sensor_id;sensor_type;location;lat;lon;timestamp;temperature;humidity
29575;DHT22;16507;51.046;6.406;2023-09-18T00:01:37;19.60;99.90
29575;DHT22;16507;51.046;6.406;2023-09-18T00:04:07;19.70;99.90
29575;DHT22;16507;51.046;6.406;2023-09-18T00:06:33;19.70;99.90
29575;DHT22;16507;51.046;6.406;2023-09-18T00:08:59;19.70;99.90
29575;DHT22;16507;51.046;6.406;2023-09-18T00:11:24;19.70;99.90
29575;DHT22;16507;51.046;6.406;2023-09-18T00:13:50;19.60;99.90
29575;DHT22;16507;51.046;6.406;2023-09-18T00:16:16;19.60;99.90
29575;DHT22;16507;51.046;6.406;2023-09-18T00:18:42;19.60;99.90
29575;DHT22;16507;51.046;6.406;2023-09-18T00:21:13;19.60;99.90
29575;DHT22;16507;51.046;6.406;2023-09-18T00:23:38;19.50;99.90
29575;DHT22;16507;51.046;6.406;2023-09-18T00:26:04;19.50;99.90
29575;DHT22;16507;51.046;6.406;2023-09-18T00:28:29;19.50;99.90
29575;DHT22;16507;51.046;6.406;2023-09-18T00:30:55;19.50;99.90
29575;DHT22;16507;51.046;6.406;2023-09-18T00:33:21;19.40;99.90
29575;DHT22;16507;51.046;6.406;2023-09-18T00:35:50;19.30;99.90
29575;DHT22;16507;51.046;6.406;2023-09-18T00:38:16;19.20;99.90
29575;DHT22;16507;51.046;6.406;2023-09-18T00:40:42;19.20;99.90
29575;DHT22;16507;51.046;6.406;2023-09-18T00:43:08;19.20;99.90
29575;DHT22;16507;51.046;6.406;2023-09-18T00:45:39;19.20;99.90
29575;DHT22;16507;51.046;6.406;2023-09-18T00:48:06;19.10;99.90
29575;DHT22;16507;51.046;6.406;2023-09-18T00:50:32;19.20;99.90
29575;DHT22;16507;51.046;6.406;2023-09-18T00:52:59;19.10;99.90
29575;DHT22;16507;51.046;6.406;2023-09-18T00:55:26;19.20;99.90
29575;DHT22;16507;51.046;6.406;2023-09-18T00:57:52;19.20;99.90
29575;DHT22;16507;51.046;6.406;2023-09-18T01:00:20;19.20;99.90
29575;DHT22;16507;51.046;6.406;2023-09-18T01:02:45;19.30;99.90
29575;DHT22;16507;51.046;6.406;2023-09-18T01:05:11;19.30;99.90
29575;DHT22;16507;51.046;6.406;2023-09-18T01:07:37;19.30;99.90
29575;DHT22;16507;51.046;6.406;2023-09-18T01:10:02;19.30;99.90
29575;DHT22;16507;51.046;6.406;2023-09-18T01:12:53;19.30;99.90
29575;DHT22;16507;51.046;6.406;2023-09-18T01:15:33;19.30;99.90
29575;DHT22;16507;51.046;6.406;2023-09-18T01:18:01;19.30;99.90
29575;DHT22;16507;51.046;6.406;2023-09-18T01:20:28;19.30;99.90
29575;DHT22;16507;51.046;6.406;2023-09-18T01:22:57;19.30;99.90
29575;DHT22;16507;51.046;6.406;2023-09-18T01:25:23;19.20;99.90
29575;DHT22;16507;51.046;6.406;2023-09-18T01:27:48;19.20;99.90
29575;DHT22;16507;51.046;6.406;2023-09-18T01:30:14;19.20;99.90
29575;DHT22;16507;51.046;6.406;2023-09-18T01:32:41;19.20;99.90
29575;DHT22;16507;51.046;6.406;2023-09-18T01:35:08;19.10;99.90
29575;DHT22;16507;51.046;6.406;2023-09-18T01:37:35;19.10;99.90
29575;DHT22;16507;51.046;6.406;2023-09-18T01:40:04;19.10;99.90
29575;DHT22;16507;51.046;6.406;2023-09-18T01:42:32;19.20;99.90
29575;DHT22;16507;51.046;6.406;2023-09-18T01:44:58;19.10;99.90
29575;DHT22;16507;51.046;6.406;2023-09-18T01:47:23;19.10;99.90
29575;DHT22;16507;51.046;6.406;2023-09-18T01:49:49;19.10;99.90
29575;DHT22;16507;51.046;6.406;2023-09-18T01:52:15;19.10;99.90
29575;DHT22;16507;51.046;6.406;2023-09-18T01:54:41;19.10;99.90
29575;DHT22;16507;51.046;6.406;2023-09-18T01:57:07;19.20;99.90
29575;DHT22;16507;51.046;6.406;2023-09-18T01:59:36;19.20;99.90
29575;DHT22;16507;51.046;6.406;2023-09-18T02:02:02;19.20;99.90
29575;DHT22;16507;51.046;6.406;2023-09-18T02:04:32;19.20;99.90
29575;DHT22;16507;51.046;6.406;2023-09-18T02:06:58;19.20;99.90
29575;DHT22;16507;51.046;6.406;2023-09-18T02:09:24;19.30;99.90
29575;DHT22;16507;51.046;6.406;2023-09-18T02:11:49;19.40;99.90
29575;DHT22;16507;51.046;6.406;2023-09-18T02:14:15;19.60;99.90
29575;DHT22;16507;51.046;6.406;2023-09-18T02:16:42;19.70;99.90
29575;DHT22;16507;51.046;6.406;2023-09-18T02:19:09;19.70;99.90
29575;DHT22;16507;51.046;6.406;2023-09-18T02:21:36;19.80;99.90
29575;DHT22;16507;51.046;6.406;2023-09-18T02:24:01;19.90;99.90
29575;DHT22;16507;51.046;6.406;2023-09-18T02:26:27;19.90;99.90
29575;DHT22;16507;51.046;6.406;2023-09-18T02:28:54;20.00;99.90
29575;DHT22;16507;51.046;6.406;2023-09-18T02:31:22;20.00;99.90
29575;DHT22;16507;51.046;6.406;2023-09-18T02:33:48;20.00;99.90
29575;DHT22;16507;51.046;6.406;2023-09-18T02:36:15;20.00;99.90
29575;DHT22;16507;51.046;6.406;2023-09-18T02:38:40;19.90;99.90
29575;DHT22;16507;51.046;6.406;2023-09-18T02:41:06;19.90;99.90
29575;DHT22;16507;51.046;6.406;2023-09-18T02:43:32;19.90;99.90
29575;DHT22;16507;51.046;6.406;2023-09-18T02:45:57;19.80;99.90
29575;DHT22;16507;51.046;6.406;2023-09-18T02:48:23;19.80;99.90
29575;DHT22;16507;51.046;6.406;2023-09-18T02:50:49;19.90;99.90
29575;DHT22;16507;51.046;6.406;2023-09-18T02:53:19;19.80;99.90
29575;DHT22;16507;51.046;6.406;2023-09-18T02:55:52;19.80;99.90
29575;DHT22;16507;51.046;6.406;2023-09-18T02:58:19;19.80;99.90
29575;DHT22;16507;51.046;6.406;2023-09-18T03:00:50;19.80;99.90
29575;DHT22;16507;51.046;6.406;2023-09-18T03:03:16;19.80;99.90
29575;DHT22;16507;51.046;6.406;2023-09-18T03:05:43;19.80;99.90
29575;DHT22;16507;51.046;6.406;2023-09-18T03:08:10;19.80;99.90
29575;DHT22;16507;51.046;6.406;2023-09-18T03:10:37;19.80;99.90
29575;DHT22;16507;51.046;6.406;2023-09-18T03:13:05;19.80;99.90
29575;DHT22;16507;51.046;6.406;2023-09-18T03:15:31;20.00;99.90
29575;DHT22;16507;51.046;6.406;2023-09-18T03:17:58;20.00;99.90
29575;DHT22;16507;51.046;6.406;2023-09-18T03:20:27;20.10;99.90
29575;DHT22;16507;51.046;6.406;2023-09-18T03:22:55;20.10;99.90
29575;DHT22;16507;51.046;6.406;2023-09-18T03:25:22;20.00;99.90
29575;DHT22;16507;51.046;6.406;2023-09-18T03:27:47;19.90;99.90
29575;DHT22;16507;51.046;6.406;2023-09-18T03:30:13;19.90;99.90
29575;DHT22;16507;51.046;6.406;2023-09-18T03:32:41;19.90;99.90
29575;DHT22;16507;51.046;6.406;2023-09-18T03:35:08;19.80;99.90
29575;DHT22;16507;51.046;6.406;2023-09-18T03:37:41;19.80;99.90
29575;DHT22;16507;51.046;6.406;2023-09-18T03:40:08;19.80;99.90
29575;DHT22;16507;51.046;6.406;2023-09-18T03:42:34;19.80;99.90
29575;DHT22;16507;51.046;6.406;2023-09-18T03:44:59;19.70;99.90
29575;DHT22;16507;51.046;6.406;2023-09-18T03:47:25;19.70;99.90
29575;DHT22;16507;51.046;6.406;2023-09-18T03:49:51;19.70;99.90
29575;DHT22;16507;51.046;6.406;2023-09-18T03:52:16;19.70;99.90
29575;DHT22;16507;51.046;6.406;2023-09-18T03:54:42;19.80;99.90
29575;DHT22;16507;51.046;6.406;2023-09-18T03:57:07;19.70;99.90
29575;DHT22;16507;51.046;6.406;2023-09-18T03:59:33;19.70;99.90
29575;DHT22;16507;51.046;6.406;2023-09-18T04:01:58;19.70;99.90
29575;DHT22;16507;51.046;6.406;2023-09-18T04:04:24;19.70;99.90
29575;DHT22;16507;51.046;6.406;2023-09-18T04:06:50;19.60;99.90
29575;DHT22;16507;51.046;6.406;2023-09-18T04:09:15;19.70;99.90
29575;DHT22;16507;51.046;6.406;2023-09-18T04:11:41;19.80;99.90
29575;DHT22;16507;51.046;6.406;2023-09-18T04:14:06;19.80;99.90
29575;DHT22;16507;51.046;6.406;2023-09-18T04:16:32;19.70;99.90
29575;DHT22;16507;51.046;6.406;2023-09-18T04:19:04;19.60;99.90
29575;DHT22;16507;51.046;6.406;2023-09-18T04:21:30;19.50;99.90
29575;DHT22;16507;51.046;6.406;2023-09-18T04:23:56;19.40;99.90
29575;DHT22;16507;51.046;6.406;2023-09-18T04:26:24;19.40;99.90
29575;DHT22;16507;51.046;6.406;2023-09-18T04:28:57;19.30;99.90
29575;DHT22;16507;51.046;6.406;2023-09-18T04:31:23;19.20;99.90
29575;DHT22;16507;51.046;6.406;2023-09-18T04:33:49;19.20;99.90
29575;DHT22;16507;51.046;6.406;2023-09-18T04:36:15;19.10;99.90
29575;DHT22;16507;51.046;6.406;2023-09-18T04:38:41;19.00;99.90
29575;DHT22;16507;51.046;6.406;2023-09-18T04:41:06;19.00;99.90
29575;DHT22;16507;51.046;6.406;2023-09-18T04:43:36;19.00;99.90
29575;DHT22;16507;51.046;6.406;2023-09-18T04:46:03;18.90;99.90
29575;DHT22;16507;51.046;6.406;2023-09-18T04:48:30;18.90;99.90
29575;DHT22;16507;51.046;6.406;2023-09-18T04:50:57;18.90;99.90
29575;DHT22;16507;51.046;6.406;2023-09-18T04:53:25;19.00;99.90
29575;DHT22;16507;51.046;6.406;2023-09-18T04:55:51;19.10;99.90
29575;DHT22;16507;51.046;6.406;2023-09-18T04:58:17;19.20;99.90
29575;DHT22;16507;51.046;6.406;2023-09-18T05:00:43;19.20;99.90
29575;DHT22;16507;51.046;6.406;2023-09-18T05:03:10;19.20;99.90
29575;DHT22;16507;51.046;6.406;2023-09-18T05:05:36;19.20;99.90
29575;DHT22;16507;51.046;6.406;2023-09-18T05:08:02;19.20;99.90
29575;DHT22;16507;51.046;6.406;2023-09-18T05:10:28;19.20;99.90
29575;DHT22;16507;51.046;6.406;2023-09-18T05:12:54;19.20;99.90
29575;DHT22;16507;51.046;6.406;2023-09-18T05:15:24;19.20;99.90
29575;DHT22;16507;51.046;6.406;2023-09-18T05:17:52;19.20;99.90
29575;DHT22;16507;51.046;6.406;2023-09-18T05:20:22;19.20;99.90
29575;DHT22;16507;51.046;6.406;2023-09-18T05:22:50;19.20;99.90
29575;DHT22;16507;51.046;6.406;2023-09-18T05:25:18;19.20;99.90
29575;DHT22;16507;51.046;6.406;2023-09-18T05:27:44;19.20;99.90
29575;DHT22;16507;51.046;6.406;2023-09-18T05:30:14;19.20;99.90
29575;DHT22;16507;51.046;6.406;2023-09-18T05:32:41;19.20;99.90
29575;DHT22;16507;51.046;6.406;2023-09-18T05:35:07;19.20;99.90
29575;DHT22;16507;51.046;6.406;2023-09-18T05:37:36;19.20;99.90
29575;DHT22;16507;51.046;6.406;2023-09-18T05:40:07;19.30;99.90
29575;DHT22;16507;51.046;6.406;2023-09-18T05:42:38;19.30;99.90
29575;DHT22;16507;51.046;6.406;2023-09-18T05:45:05;19.30;99.90
29575;DHT22;16507;51.046;6.406;2023-09-18T05:47:32;19.30;99.90
29575;DHT22;16507;51.046;6.406;2023-09-18T05:49:58;19.40;99.90
29575;DHT22;16507;51.046;6.406;2023-09-18T05:52:24;19.50;99.90
29575;DHT22;16507;51.046;6.406;2023-09-18T05:54:50;19.40;99.90
29575;DHT22;16507;51.046;6.406;2023-09-18T05:57:17;19.40;99.90
29575;DHT22;16507;51.046;6.406;2023-09-18T05:59:43;19.50;99.90
29575;DHT22;16507;51.046;6.406;2023-09-18T06:02:10;19.60;99.90
29575;DHT22;16507;51.046;6.406;2023-09-18T06:04:36;19.70;99.90
29575;DHT22;16507;51.046;6.406;2023-09-18T06:07:05;19.60;99.90
29575;DHT22;16507;51.046;6.406;2023-09-18T06:09:31;19.50;99.90
29575;DHT22;16507;51.046;6.406;2023-09-18T06:11:56;19.60;99.90
29575;DHT22;16507;51.046;6.406;2023-09-18T06:14:24;19.50;99.90
29575;DHT22;16507;51.046;6.406;2023-09-18T06:16:50;19.50;99.90
29575;DHT22;16507;51.046;6.406;2023-09-18T06:19:16;19.50;99.90
29575;DHT22;16507;51.046;6.406;2023-09-18T06:21:45;19.60;99.90
29575;DHT22;16507;51.046;6.406;2023-09-18T06:24:10;19.60;99.90
29575;DHT22;16507;51.046;6.406;2023-09-18T06:26:37;19.70;99.90
29575;DHT22;16507;51.046;6.406;2023-09-18T06:29:02;19.80;99.90
29575;DHT22;16507;51.046;6.406;2023-09-18T06:31:29;19.80;99.90
29575;DHT22;16507;51.046;6.406;2023-09-18T06:33:57;19.70;99.90
29575;DHT22;16507;51.046;6.406;2023-09-18T06:36:22;19.80;99.90
29575;DHT22;16507;51.046;6.406;2023-09-18T06:38:48;19.80;99.90
29575;DHT22;16507;51.046;6.406;2023-09-18T06:41:13;19.80;99.90
29575;DHT22;16507;51.046;6.406;2023-09-18T06:43:39;19.80;99.90
29575;DHT22;16507;51.046;6.406;2023-09-18T06:46:07;19.80;99.90
29575;DHT22;16507;51.046;6.406;2023-09-18T06:48:33;19.80;99.90
29575;DHT22;16507;51.046;6.406;2023-09-18T06:50:59;19.90;99.90
29575;DHT22;16507;51.046;6.406;2023-09-18T06:53:27;19.80;99.90
29575;DHT22;16507;51.046;6.406;2023-09-18T06:55:54;19.90;99.90
29575;DHT22;16507;51.046;6.406;2023-09-18T06:58:23;19.90;99.90
29575;DHT22;16507;51.046;6.406;2023-09-18T07:00:48;19.90;99.90
29575;DHT22;16507;51.046;6.406;2023-09-18T07:03:16;19.90;99.90
29575;DHT22;16507;51.046;6.406;2023-09-18T07:05:43;19.90;99.90
29575;DHT22;16507;51.046;6.406;2023-09-18T07:08:09;19.90;99.90
29575;DHT22;16507;51.046;6.406;2023-09-18T07:10:37;19.90;99.90
29575;DHT22;16507;51.046;6.406;2023-09-18T07:13:03;19.90;99.90
29575;DHT22;16507;51.046;6.406;2023-09-18T07:15:29;19.90;99.90
29575;DHT22;16507;51.046;6.406;2023-09-18T07:17:54;19.80;99.90
29575;DHT22;16507;51.046;6.406;2023-09-18T07:20:20;19.80;99.90
29575;DHT22;16507;51.046;6.406;2023-09-18T07:22:48;19.80;99.90
29575;DHT22;16507;51.046;6.406;2023-09-18T07:25:14;19.80;99.90
29575;DHT22;16507;51.046;6.406;2023-09-18T07:27:40;19.80;99.90
29575;DHT22;16507;51.046;6.406;2023-09-18T07:30:13;19.80;99.90
29575;DHT22;16507;51.046;6.406;2023-09-18T07:32:42;19.80;99.90
29575;DHT22;16507;51.046;6.406;2023-09-18T07:35:11;19.80;99.90
29575;DHT22;16507;51.046;6.406;2023-09-18T07:37:39;19.80;99.90
29575;DHT22;16507;51.046;6.406;2023-09-18T07:40:07;19.80;99.90
29575;DHT22;16507;51.046;6.406;2023-09-18T07:42:33;19.80;99.90
29575;DHT22;16507;51.046;6.406;2023-09-18T07:44:59;19.80;99.90
29575;DHT22;16507;51.046;6.406;2023-09-18T07:47:25;19.80;99.90
29575;DHT22;16507;51.046;6.406;2023-09-18T07:49:50;19.80;99.90
29575;DHT22;16507;51.046;6.406;2023-09-18T07:52:17;19.80;99.90
29575;DHT22;16507;51.046;6.406;2023-09-18T07:54:43;19.80;99.90
29575;DHT22;16507;51.046;6.406;2023-09-18T07:57:09;19.80;99.90
29575;DHT22;16507;51.046;6.406;2023-09-18T07:59:36;19.80;99.90
29575;DHT22;16507;51.046;6.406;2023-09-18T08:02:02;19.80;99.90
29575;DHT22;16507;51.046;6.406;2023-09-18T08:04:27;19.80;99.90
29575;DHT22;16507;51.046;6.406;2023-09-18T08:06:53;19.90;99.90
29575;DHT22;16507;51.046;6.406;2023-09-18T08:09:19;20.00;99.90
29575;DHT22;16507;51.046;6.406;2023-09-18T08:11:44;20.10;99.90
29575;DHT22;16507;51.046;6.406;2023-09-18T08:14:10;20.30;99.90
29575;DHT22;16507;51.046;6.406;2023-09-18T08:16:38;20.30;99.90
29575;DHT22;16507;51.046;6.406;2023-09-18T08:19:03;20.40;99.90
29575;DHT22;16507;51.046;6.406;2023-09-18T08:21:29;20.30;99.90
29575;DHT22;16507;51.046;6.406;2023-09-18T08:23:55;20.30;99.90
29575;DHT22;16507;51.046;6.406;2023-09-18T08:26:24;20.30;99.90
29575;DHT22;16507;51.046;6.406;2023-09-18T08:28:52;20.20;99.90
29575;DHT22;16507;51.046;6.406;2023-09-18T08:31:18;20.20;99.90
29575;DHT22;16507;51.046;6.406;2023-09-18T08:33:44;20.20;99.90
29575;DHT22;16507;51.046;6.406;2023-09-18T08:36:09;20.20;99.90
29575;DHT22;16507;51.046;6.406;2023-09-18T08:38:35;20.20;99.90
29575;DHT22;16507;51.046;6.406;2023-09-18T08:41:01;20.30;99.90
29575;DHT22;16507;51.046;6.406;2023-09-18T08:43:27;20.30;99.90
29575;DHT22;16507;51.046;6.406;2023-09-18T08:45:55;20.30;99.90
29575;DHT22;16507;51.046;6.406;2023-09-18T08:48:23;20.40;99.90
29575;DHT22;16507;51.046;6.406;2023-09-18T08:50:50;20.50;99.90
29575;DHT22;16507;51.046;6.406;2023-09-18T08:53:16;20.50;99.90
29575;DHT22;16507;51.046;6.406;2023-09-18T08:55:42;20.50;99.90
29575;DHT22;16507;51.046;6.406;2023-09-18T08:58:08;20.50;99.90
29575;DHT22;16507;51.046;6.406;2023-09-18T09:00:36;20.60;99.90
29575;DHT22;16507;51.046;6.406;2023-09-18T09:03:03;20.60;99.90
29575;DHT22;16507;51.046;6.406;2023-09-18T09:05:30;20.60;99.90
29575;DHT22;16507;51.046;6.406;2023-09-18T09:07:56;20.60;99.90
29575;DHT22;16507;51.046;6.406;2023-09-18T09:10:22;20.50;99.90
29575;DHT22;16507;51.046;6.406;2023-09-18T09:12:57;20.60;99.90
29575;DHT22;16507;51.046;6.406;2023-09-18T09:15:42;20.60;99.90
29575;DHT22;16507;51.046;6.406;2023-09-18T09:18:11;20.70;99.90
29575;DHT22;16507;51.046;6.406;2023-09-18T09:20:37;20.80;99.90
29575;DHT22;16507;51.046;6.406;2023-09-18T09:23:04;20.80;99.90
29575;DHT22;16507;51.046;6.406;2023-09-18T09:25:31;20.90;99.90
29575;DHT22;16507;51.046;6.406;2023-09-18T09:28:07;20.90;99.90
29575;DHT22;16507;51.046;6.406;2023-09-18T09:30:34;21.10;99.90
29575;DHT22;16507;51.046;6.406;2023-09-18T09:33:04;21.20;99.90
29575;DHT22;16507;51.046;6.406;2023-09-18T09:35:32;21.20;99.90
29575;DHT22;16507;51.046;6.406;2023-09-18T09:38:12;21.10;99.90
29575;DHT22;16507;51.046;6.406;2023-09-18T09:40:41;21.10;99.90
29575;DHT22;16507;51.046;6.406;2023-09-18T09:43:10;21.20;99.90
29575;DHT22;16507;51.046;6.406;2023-09-18T09:45:36;21.20;99.90
29575;DHT22;16507;51.046;6.406;2023-09-18T09:48:06;21.40;99.90
29575;DHT22;16507;51.046;6.406;2023-09-18T09:50:32;21.40;99.90
29575;DHT22;16507;51.046;6.406;2023-09-18T09:52:59;21.50;99.90
29575;DHT22;16507;51.046;6.406;2023-09-18T09:55:30;21.80;99.90
29575;DHT22;16507;51.046;6.406;2023-09-18T10:03:18;22.10;99.90
29575;DHT22;16507;51.046;6.406;2023-09-18T10:05:49;22.30;99.90
29575;DHT22;16507;51.046;6.406;2023-09-18T10:08:23;22.30;99.90
29575;DHT22;16507;51.046;6.406;2023-09-18T10:10:54;22.40;99.90
29575;DHT22;16507;51.046;6.406;2023-09-18T10:13:27;22.70;99.90
29575;DHT22;16507;51.046;6.406;2023-09-18T10:15:56;22.80;99.90
29575;DHT22;16507;51.046;6.406;2023-09-18T10:18:39;23.00;99.90
29575;DHT22;16507;51.046;6.406;2023-09-18T10:21:22;23.10;99.90
29575;DHT22;16507;51.046;6.406;2023-09-18T10:26:32;23.40;99.90
29575;DHT22;16507;51.046;6.406;2023-09-18T10:29:00;23.30;99.90
29575;DHT22;16507;51.046;6.406;2023-09-18T10:31:29;23.40;99.90
29575;DHT22;16507;51.046;6.406;2023-09-18T10:33:58;23.30;99.90
29575;DHT22;16507;51.046;6.406;2023-09-18T10:36:25;23.30;99.90
29575;DHT22;16507;51.046;6.406;2023-09-18T10:38:52;23.30;99.90
29575;DHT22;16507;51.046;6.406;2023-09-18T10:41:20;23.50;99.90
29575;DHT22;16507;51.046;6.406;2023-09-18T10:43:46;23.50;99.90
29575;DHT22;16507;51.046;6.406;2023-09-18T10:46:15;23.70;99.90
29575;DHT22;16507;51.046;6.406;2023-09-18T10:48:43;23.50;99.90
29575;DHT22;16507;51.046;6.406;2023-09-18T10:51:10;23.80;99.90
29575;DHT22;16507;51.046;6.406;2023-09-18T10:53:36;24.10;99.90
29575;DHT22;16507;51.046;6.406;2023-09-18T10:56:02;24.00;99.90
29575;DHT22;16507;51.046;6.406;2023-09-18T10:58:32;23.90;99.90
29575;DHT22;16507;51.046;6.406;2023-09-18T11:01:02;23.80;99.90
29575;DHT22;16507;51.046;6.406;2023-09-18T11:03:27;23.70;99.90
29575;DHT22;16507;51.046;6.406;2023-09-18T11:06:07;23.70;99.90
29575;DHT22;16507;51.046;6.406;2023-09-18T11:08:45;23.90;99.90
29575;DHT22;16507;51.046;6.406;2023-09-18T11:11:12;24.20;99.90
29575;DHT22;16507;51.046;6.406;2023-09-18T11:13:48;24.30;99.90
29575;DHT22;16507;51.046;6.406;2023-09-18T11:16:33;24.20;99.90
29575;DHT22;16507;51.046;6.406;2023-09-18T11:19:10;24.00;99.90
29575;DHT22;16507;51.046;6.406;2023-09-18T11:21:37;24.00;99.90
29575;DHT22;16507;51.046;6.406;2023-09-18T11:26:33;24.50;99.90
29575;DHT22;16507;51.046;6.406;2023-09-18T11:29:10;24.90;99.90
29575;DHT22;16507;51.046;6.406;2023-09-18T11:31:50;25.00;99.90
29575;DHT22;16507;51.046;6.406;2023-09-18T11:34:30;24.80;99.90
29575;DHT22;16507;51.046;6.406;2023-09-18T11:37:00;24.50;99.90
29575;DHT22;16507;51.046;6.406;2023-09-18T11:39:41;24.30;96.10
29575;DHT22;16507;51.046;6.406;2023-09-18T11:42:27;24.10;98.90
29575;DHT22;16507;51.046;6.406;2023-09-18T11:44:55;24.50;99.90
29575;DHT22;16507;51.046;6.406;2023-09-18T11:47:24;24.50;98.90
29575;DHT22;16507;51.046;6.406;2023-09-18T11:50:02;24.00;96.40
29575;DHT22;16507;51.046;6.406;2023-09-18T11:52:30;24.40;99.90
29575;DHT22;16507;51.046;6.406;2023-09-18T11:54:58;24.50;96.40
29575;DHT22;16507;51.046;6.406;2023-09-18T11:57:24;24.70;96.80
29575;DHT22;16507;51.046;6.406;2023-09-18T11:59:50;24.80;93.30
29575;DHT22;16507;51.046;6.406;2023-09-18T12:02:30;24.60;95.90
29575;DHT22;16507;51.046;6.406;2023-09-18T12:05:15;24.50;94.80
29575;DHT22;16507;51.046;6.406;2023-09-18T12:07:43;25.00;95.00
29575;DHT22;16507;51.046;6.406;2023-09-18T12:10:20;25.10;91.40
29575;DHT22;16507;51.046;6.406;2023-09-18T12:12:49;25.20;94.80
29575;DHT22;16507;51.046;6.406;2023-09-18T12:15:17;25.10;86.10
29575;DHT22;16507;51.046;6.406;2023-09-18T12:17:43;25.00;89.10
29575;DHT22;16507;51.046;6.406;2023-09-18T12:20:18;25.20;86.30
29575;DHT22;16507;51.046;6.406;2023-09-18T12:22:47;25.60;86.70
29575;DHT22;16507;51.046;6.406;2023-09-18T12:25:14;25.70;81.30
29575;DHT22;16507;51.046;6.406;2023-09-18T12:27:43;25.50;81.00
29575;DHT22;16507;51.046;6.406;2023-09-18T12:30:10;25.70;83.20
29575;DHT22;16507;51.046;6.406;2023-09-18T12:32:37;25.80;70.60
29575;DHT22;16507;51.046;6.406;2023-09-18T12:35:05;25.80;80.50
29575;DHT22;16507;51.046;6.406;2023-09-18T12:37:39;25.60;75.20
29575;DHT22;16507;51.046;6.406;2023-09-18T12:40:07;25.40;82.10
29575;DHT22;16507;51.046;6.406;2023-09-18T12:42:39;25.10;76.00
29575;DHT22;16507;51.046;6.406;2023-09-18T12:45:08;25.00;78.70
29575;DHT22;16507;51.046;6.406;2023-09-18T12:47:35;24.90;74.20
29575;DHT22;16507;51.046;6.406;2023-09-18T12:50:05;25.20;77.80
29575;DHT22;16507;51.046;6.406;2023-09-18T12:52:32;25.50;80.60
29575;DHT22;16507;51.046;6.406;2023-09-18T12:54:59;25.70;76.00
29575;DHT22;16507;51.046;6.406;2023-09-18T12:57:27;25.70;79.00
29575;DHT22;16507;51.046;6.406;2023-09-18T12:59:53;25.80;73.60
29575;DHT22;16507;51.046;6.406;2023-09-18T13:02:20;25.80;67.30
29575;DHT22;16507;51.046;6.406;2023-09-18T13:04:53;25.70;66.00
29575;DHT22;16507;51.046;6.406;2023-09-18T13:07:19;25.30;66.00
29575;DHT22;16507;51.046;6.406;2023-09-18T13:10:03;25.10;73.40
29575;DHT22;16507;51.046;6.406;2023-09-18T13:15:06;25.50;70.40
29575;DHT22;16507;51.046;6.406;2023-09-18T13:17:46;24.90;74.60
29575;DHT22;16507;51.046;6.406;2023-09-18T13:20:14;24.60;72.30
29575;DHT22;16507;51.046;6.406;2023-09-18T13:22:41;24.70;77.80
29575;DHT22;16507;51.046;6.406;2023-09-18T13:25:09;25.00;70.00
29575;DHT22;16507;51.046;6.406;2023-09-18T13:27:37;24.40;71.90
29575;DHT22;16507;51.046;6.406;2023-09-18T13:30:04;24.10;74.90
29575;DHT22;16507;51.046;6.406;2023-09-18T13:32:38;24.40;72.70
29575;DHT22;16507;51.046;6.406;2023-09-18T13:35:04;24.80;71.60
29575;DHT22;16507;51.046;6.406;2023-09-18T13:37:34;25.00;71.60
29575;DHT22;16507;51.046;6.406;2023-09-18T13:40:00;25.00;70.70
29575;DHT22;16507;51.046;6.406;2023-09-18T13:42:29;25.10;66.90
29575;DHT22;16507;51.046;6.406;2023-09-18T13:45:00;25.20;64.40
29575;DHT22;16507;51.046;6.406;2023-09-18T13:47:36;25.50;62.00
29575;DHT22;16507;51.046;6.406;2023-09-18T13:50:03;25.40;62.50
29575;DHT22;16507;51.046;6.406;2023-09-18T13:52:31;25.50;68.00
29575;DHT22;16507;51.046;6.406;2023-09-18T13:54:57;25.70;63.60
29575;DHT22;16507;51.046;6.406;2023-09-18T13:57:22;25.60;61.90
29575;DHT22;16507;51.046;6.406;2023-09-18T13:59:49;25.80;62.10
29575;DHT22;16507;51.046;6.406;2023-09-18T14:02:16;25.60;55.80
29575;DHT22;16507;51.046;6.406;2023-09-18T14:04:42;25.50;54.80
29575;DHT22;16507;51.046;6.406;2023-09-18T14:07:09;25.60;54.90
29575;DHT22;16507;51.046;6.406;2023-09-18T14:09:35;25.50;55.40
29575;DHT22;16507;51.046;6.406;2023-09-18T14:12:04;25.40;59.50
29575;DHT22;16507;51.046;6.406;2023-09-18T14:14:34;25.60;55.80
29575;DHT22;16507;51.046;6.406;2023-09-18T14:17:01;25.60;58.70
29575;DHT22;16507;51.046;6.406;2023-09-18T14:19:27;25.90;61.00
29575;DHT22;16507;51.046;6.406;2023-09-18T14:21:53;25.70;56.00
29575;DHT22;16507;51.046;6.406;2023-09-18T14:24:18;25.60;53.30
29575;DHT22;16507;51.046;6.406;2023-09-18T14:26:48;25.40;54.80
29575;DHT22;16507;51.046;6.406;2023-09-18T14:29:14;25.50;58.60
29575;DHT22;16507;51.046;6.406;2023-09-18T14:31:40;25.30;56.10
29575;DHT22;16507;51.046;6.406;2023-09-18T14:34:06;25.50;51.80
29575;DHT22;16507;51.046;6.406;2023-09-18T14:36:32;25.40;54.80
29575;DHT22;16507;51.046;6.406;2023-09-18T14:39:00;25.40;51.90
29575;DHT22;16507;51.046;6.406;2023-09-18T14:41:26;25.20;52.00
29575;DHT22;16507;51.046;6.406;2023-09-18T14:43:52;25.00;51.20
29575;DHT22;16507;51.046;6.406;2023-09-18T14:46:17;25.10;51.30
29575;DHT22;16507;51.046;6.406;2023-09-18T14:48:43;25.20;52.60
29575;DHT22;16507;51.046;6.406;2023-09-18T14:51:09;25.20;52.30
29575;DHT22;16507;51.046;6.406;2023-09-18T14:53:34;25.00;53.70
29575;DHT22;16507;51.046;6.406;2023-09-18T14:56:00;24.90;52.10
29575;DHT22;16507;51.046;6.406;2023-09-18T14:58:26;24.90;54.20
29575;DHT22;16507;51.046;6.406;2023-09-18T15:00:53;24.90;50.20
29575;DHT22;16507;51.046;6.406;2023-09-18T15:03:19;24.90;50.60
29575;DHT22;16507;51.046;6.406;2023-09-18T15:05:44;24.50;52.80
29575;DHT22;16507;51.046;6.406;2023-09-18T15:08:10;24.60;54.70
29575;DHT22;16507;51.046;6.406;2023-09-18T15:10:37;24.90;53.90
29575;DHT22;16507;51.046;6.406;2023-09-18T15:13:06;24.80;53.80
29575;DHT22;16507;51.046;6.406;2023-09-18T15:15:31;24.70;53.70
29575;DHT22;16507;51.046;6.406;2023-09-18T15:17:57;24.60;54.40
29575;DHT22;16507;51.046;6.406;2023-09-18T15:20:23;24.60;53.80
29575;DHT22;16507;51.046;6.406;2023-09-18T15:22:51;24.70;53.30
29575;DHT22;16507;51.046;6.406;2023-09-18T15:25:17;24.80;55.00
29575;DHT22;16507;51.046;6.406;2023-09-18T15:27:43;24.70;53.70
29575;DHT22;16507;51.046;6.406;2023-09-18T15:30:08;24.60;56.50
29575;DHT22;16507;51.046;6.406;2023-09-18T15:35:13;24.60;53.70
29575;DHT22;16507;51.046;6.406;2023-09-18T15:37:39;24.80;61.10
29575;DHT22;16507;51.046;6.406;2023-09-18T15:40:05;25.00;54.00
29575;DHT22;16507;51.046;6.406;2023-09-18T15:42:31;25.00;53.10
29575;DHT22;16507;51.046;6.406;2023-09-18T15:44:56;24.60;55.60
29575;DHT22;16507;51.046;6.406;2023-09-18T15:47:22;24.60;53.50
29575;DHT22;16507;51.046;6.406;2023-09-18T15:49:47;24.50;56.50